Time;durP1;ratioP1;P1;durP2;ratioP2;P2;SDS_P1;SDS_P2;PMS_P1;PMS_P2;Temp;Humidity;BMP_temperature;BMP_pressure;BME280_temperature;BME280_humidity;BME280_pressure;Samples;Min_cycle;Max_cycle;Signal;HPM_P1;HPM_P2
2021/04/17 00:02:22;;;;;;;7.70;5.33;;;;;;;10.33;44.40;95220.06;5081709;28;20507;-70
2021/04/17 00:04:49;;;;;;;7.63;6.00;;;;;;;10.39;44.58;95211.22;5085371;28;20446;-69
2021/04/17 00:07:17;;;;;;;8.10;5.97;;;;;;;10.29;45.14;95211.13;5080368;28;20459;-70
2021/04/17 00:09:44;;;;;;;7.47;5.43;;;;;;;10.18;45.71;95210.19;5083068;28;20493;-71
2021/04/17 00:12:14;;;;;;;7.97;5.90;;;;;;;9.83;46.58;95206.34;5081769;28;20524;-68
2021/04/17 00:14:41;;;;;;;8.67;5.90;;;;;;;9.81;46.78;95211.03;5084571;28;20857;-71
2021/04/17 00:17:13;;;;;;;7.67;5.77;;;;;;;9.78;47.58;95211.53;5081557;28;20543;-71
2021/04/17 00:19:40;;;;;;;10.23;6.10;;;;;;;9.93;47.42;95212.50;5086471;28;20525;-68
2021/04/17 00:22:08;;;;;;;10.77;5.93;;;;;;;10.04;47.64;95210.78;5082290;28;20540;-69
2021/04/17 00:24:34;;;;;;;12.97;6.60;;;;;;;10.20;48.32;95217.81;5086817;28;20449;-70
2021/04/17 00:27:03;;;;;;;9.63;6.47;;;;;;;9.88;50.14;95216.88;5078394;28;20460;-69
2021/04/17 00:29:31;;;;;;;9.27;6.30;;;;;;;9.98;50.60;95209.16;5079170;28;20484;-69
2021/04/17 00:31:59;;;;;;;9.30;6.27;;;;;;;9.96;51.31;95211.22;5074677;28;20474;-70
2021/04/17 00:34:26;;;;;;;7.63;6.53;;;;;;;9.66;52.70;95208.19;5071587;28;20437;-69
2021/04/17 00:36:53;;;;;;;9.70;7.03;;;;;;;9.10;54.44;95202.16;5080781;28;20445;-70
2021/04/17 00:39:20;;;;;;;9.03;7.27;;;;;;;9.05;55.19;95204.69;5087609;28;20527;-69
2021/04/17 00:41:47;;;;;;;8.97;7.63;;;;;;;9.02;55.67;95220.06;5079259;28;20959;-72
2021/04/17 00:44:14;;;;;;;9.70;8.03;;;;;;;9.32;55.62;95217.13;5087874;28;20540;-69
2021/04/17 00:46:41;;;;;;;10.20;8.07;;;;;;;9.19;56.58;95216.44;5077145;28;20502;-69
2021/04/17 00:49:09;;;;;;;10.68;7.63;;;;;;;9.07;57.39;95218.34;5087461;28;20489;-71
2021/04/17 00:51:36;;;;;;;9.40;7.90;;;;;;;9.14;56.94;95218.97;5078733;28;20199;-71
2021/04/17 00:54:04;;;;;;;9.67;8.03;;;;;;;9.23;56.21;95211.53;5086250;28;20549;-69
2021/04/17 00:56:31;;;;;;;8.47;7.10;;;;;;;9.43;56.21;95205.78;5079518;28;20458;-69
2021/04/17 00:58:59;;;;;;;10.93;7.47;;;;;;;9.46;57.27;95200.88;5081265;28;20532;-71
2021/04/17 01:01:27;;;;;;;11.27;7.43;;;;;;;9.43;56.92;95200.56;5081159;28;20445;-69
2021/04/17 01:03:58;;;;;;;9.38;7.88;;;;;;;9.31;56.93;95199.84;5069543;28;20423;-70
2021/04/17 01:06:31;;;;;;;8.13;6.90;;;;;;;9.35;56.60;95198.34;5078225;28;20237;-70
2021/04/17 01:09:46;;;;;;;10.67;8.07;;;;;;;9.14;57.20;95187.59;5089649;28;20473;-70
2021/04/17 01:12:16;;;;;;;9.60;8.00;;;;;;;9.17;57.07;95184.53;5073457;28;20467;-70
2021/04/17 01:14:47;;;;;;;7.90;7.00;;;;;;;9.36;56.56;95179.03;5085219;28;20457;-70
2021/04/17 01:17:14;;;;;;;10.30;7.97;;;;;;;9.32;56.59;95188.38;5077015;28;20476;-69
2021/04/17 01:19:47;;;;;;;11.07;8.13;;;;;;;9.29;57.90;95183.63;5086337;28;20446;-71
2021/04/17 01:22:17;;;;;;;10.53;7.67;;;;;;;9.35;57.83;95178.22;5081089;28;20453;-69
2021/04/17 01:24:46;;;;;;;8.73;7.57;;;;;;;9.00;58.36;95181.13;5085545;28;20525;-70
2021/04/17 01:27:13;;;;;;;9.40;7.57;;;;;;;8.64;58.91;95180.78;5077626;28;20442;-69
2021/04/17 01:29:43;;;;;;;8.15;7.05;;;;;;;8.91;58.38;95181.75;5077194;28;20598;-69
2021/04/17 01:32:13;;;;;;;9.37;7.60;;;;;;;8.95;59.15;95181.03;5080414;28;20652;-69
2021/04/17 01:34:41;;;;;;;9.17;7.97;;;;;;;8.92;58.56;95184.09;5084767;28;20529;-69
2021/04/17 01:37:10;;;;;;;10.70;7.67;;;;;;;9.07;59.03;95186.16;5080912;28;20452;-69
2021/04/17 01:39:55;;;;;;;9.05;7.20;;;;;;;8.74;59.96;95184.34;5085184;28;20449;-69
2021/04/17 01:42:22;;;;;;;8.90;7.17;;;;;;;8.49;60.69;95183.13;5078992;28;20222;-69
2021/04/17 01:44:48;;;;;;;7.93;6.60;;;;;;;8.49;60.71;95185.72;5084716;28;20453;-70
2021/04/17 01:47:16;;;;;;;7.47;6.57;;;;;;;8.72;60.41;95168.09;5080488;28;20448;-69
2021/04/17 01:49:50;;;;;;;8.13;6.73;;;;;;;8.73;60.29;95184.59;5082397;28;20571;-70
2021/04/17 01:52:22;;;;;;;7.83;6.80;;;;;;;8.90;59.59;95177.56;5081532;28;20444;-72
2021/04/17 01:54:53;;;;;;;11.97;7.90;;;;;;;8.92;60.37;95178.88;5086924;28;20530;-71
2021/04/17 01:57:25;;;;;;;11.33;7.90;;;;;;;8.80;60.44;95175.56;5077493;28;20446;-70
2021/04/17 01:59:52;;;;;;;12.53;7.97;;;;;;;8.76;60.08;95179.69;5077012;28;20452;-68
2021/04/17 02:02:18;;;;;;;12.43;8.03;;;;;;;8.81;60.17;95181.59;5083683;28;20816;-70
2021/04/17 02:04:45;;;;;;;14.20;8.30;;;;;;;9.05;59.68;95175.94;5083502;28;20446;-71
2021/04/17 02:07:12;;;;;;;15.10;7.90;;;;;;;9.06;60.66;95174.13;5083718;28;20445;-70
2021/04/17 02:09:40;;;;;;;11.53;7.67;;;;;;;9.12;59.73;95181.81;5089328;28;20474;-69
2021/04/17 02:12:07;;;;;;;13.30;7.90;;;;;;;9.23;58.91;95175.69;5083463;28;20437;-69
2021/04/17 02:14:33;;;;;;;10.50;8.03;;;;;;;9.23;59.37;95174.13;5082123;28;20570;-69
2021/04/17 02:17:07;;;;;;;11.33;7.43;;;;;;;9.35;59.36;95178.22;5083372;28;20442;-70
2021/04/17 02:19:39;;;;;;;12.10;8.33;;;;;;;9.18;59.97;95174.84;5089327;28;20456;-70
2021/04/17 02:22:07;;;;;;;13.17;8.17;;;;;;;9.20;59.82;95181.41;5084296;28;20553;-70
2021/04/17 02:24:34;;;;;;;10.63;7.80;;;;;;;9.29;59.45;95178.41;5082029;28;20452;-70
2021/04/17 02:27:00;;;;;;;9.83;7.37;;;;;;;9.10;59.88;95160.34;5083638;28;20448;-71
2021/04/17 02:29:27;;;;;;;11.57;7.73;;;;;;;9.18;59.85;95186.09;5089553;28;20484;-69
2021/04/17 02:31:53;;;;;;;11.97;8.20;;;;;;;8.97;60.68;95186.81;5085849;28;20450;-69
2021/04/17 02:34:23;;;;;;;10.13;7.27;;;;;;;8.94;60.76;95178.66;5078135;28;20454;-68
2021/04/17 02:36:50;;;;;;;8.07;7.03;;;;;;;8.88;60.87;95177.00;5084180;28;21374;-71
2021/04/17 02:39:16;;;;;;;9.10;6.97;;;;;;;9.00;60.42;95178.50;5092210;28;20457;-70
2021/04/17 02:41:43;;;;;;;8.97;6.73;;;;;;;8.98;60.52;95180.56;5081886;28;20445;-70
2021/04/17 02:44:09;;;;;;;9.53;6.37;;;;;;;8.75;61.05;95178.09;5083835;28;20449;-68
2021/04/17 02:46:36;;;;;;;8.60;6.53;;;;;;;8.83;61.55;95184.75;5080408;28;20457;-69
2021/04/17 02:49:03;;;;;;;7.60;6.27;;;;;;;8.71;61.36;95179.59;5091791;28;20441;-70
2021/04/17 02:51:29;;;;;;;6.73;6.03;;;;;;;8.53;62.23;95177.22;5079046;28;20540;-69
2021/04/17 02:53:55;;;;;;;7.20;5.67;;;;;;;8.72;61.81;95173.34;5085958;28;21187;-70
2021/04/17 02:56:22;;;;;;;5.70;5.07;;;;;;;8.58;62.11;95172.06;5079417;28;20446;-69
2021/04/17 02:58:48;;;;;;;6.00;5.25;;;;;;;8.60;61.71;95175.22;5091781;28;20510;-70
2021/04/17 03:01:14;;;;;;;5.50;5.00;;;;;;;8.70;61.39;95174.63;5079523;28;20199;-70
2021/04/17 03:03:41;;;;;;;5.40;4.90;;;;;;;8.51;61.35;95176.66;5086060;28;20510;-69
2021/04/17 03:06:07;;;;;;;6.23;5.17;;;;;;;8.49;61.11;95170.88;5077638;28;20449;-70
2021/04/17 03:08:34;;;;;;;6.03;5.27;;;;;;;8.59;61.14;95183.31;5092710;28;20567;-69
2021/04/17 03:11:01;;;;;;;6.30;5.50;;;;;;;8.46;60.99;95145.22;5080077;28;20500;-70
2021/04/17 03:13:27;;;;;;;5.70;5.10;;;;;;;8.51;61.56;95166.19;5087162;28;20548;-69
2021/04/17 03:15:54;;;;;;;7.15;5.82;;;;;;;8.33;61.54;95142.91;5078198;28;20454;-69
2021/04/17 03:18:21;;;;;;;6.40;5.40;;;;;;;8.48;61.10;95161.47;5089673;28;20627;-68
2021/04/17 03:20:48;;;;;;;6.68;5.60;;;;;;;8.53;61.56;95169.38;5081549;28;20745;-70
2021/04/17 03:23:15;;;;;;;6.90;5.72;;;;;;;8.63;61.05;95161.69;5085042;28;20693;-69
2021/04/17 03:25:41;;;;;;;6.95;6.15;;;;;;;8.57;61.65;95165.25;5079661;28;20196;-70
2021/04/17 03:28:08;;;;;;;7.60;6.70;;;;;;;8.58;61.85;95166.84;5082134;28;20303;-70
2021/04/17 03:30:35;;;;;;;7.38;6.68;;;;;;;8.48;61.62;95171.91;5078550;28;20474;-68
2021/04/17 03:33:02;;;;;;;8.50;7.20;;;;;;;8.55;61.81;95177.75;5084144;28;20202;-69
2021/04/17 03:35:31;;;;;;;8.17;7.20;;;;;;;8.50;62.18;95172.47;5080926;28;20470;-69
2021/04/17 03:38:01;;;;;;;8.30;7.50;;;;;;;8.42;61.67;95162.38;5086126;28;20473;-70
2021/04/17 03:40:28;;;;;;;8.40;7.22;;;;;;;8.52;61.97;95173.00;5083868;28;20203;-71
2021/04/17 03:42:55;;;;;;;7.85;7.05;;;;;;;8.54;61.49;95181.38;5083678;28;20314;-70
2021/04/17 03:45:22;;;;;;;7.90;6.50;;;;;;;8.56;61.47;95174.13;5080298;28;20191;-70
2021/04/17 03:47:49;;;;;;;7.30;6.33;;;;;;;8.51;61.79;95171.41;5084888;28;20456;-70
2021/04/17 03:50:16;;;;;;;8.57;6.13;;;;;;;8.33;62.34;95163.81;5085766;28;21028;-70
2021/04/17 03:52:42;;;;;;;7.32;6.40;;;;;;;8.44;62.70;95175.22;5082458;28;20202;-67
2021/04/17 03:55:12;;;;;;;8.10;6.20;;;;;;;8.50;61.96;95180.31;5080791;28;20736;-68
2021/04/17 03:57:39;;;;;;;7.57;6.77;;;;;;;8.58;61.95;95182.50;5083169;28;20223;-69
2021/04/17 04:00:08;;;;;;;7.60;6.77;;;;;;;8.51;62.02;95171.41;5086592;28;20498;-71
2021/04/17 04:02:35;;;;;;;9.47;7.10;;;;;;;8.55;62.22;95185.59;5082431;28;20451;-69
2021/04/17 04:05:02;;;;;;;9.43;7.65;;;;;;;8.56;62.56;95184.56;5080633;28;20445;-70
2021/04/17 04:07:28;;;;;;;10.05;7.43;;;;;;;8.48;63.14;95187.56;5063515;28;20303;-69
2021/04/17 04:09:55;;;;;;;9.55;7.13;;;;;;;8.48;62.75;95192.00;5070197;28;20239;-71
2021/04/17 04:12:21;;;;;;;10.23;7.53;;;;;;;8.50;62.91;95182.91;5081602;28;20199;-74
2021/04/17 04:14:48;;;;;;;10.13;7.67;;;;;;;8.41;63.38;95188.75;5090426;28;20203;-73
2021/04/17 04:17:14;;;;;;;10.17;7.03;;;;;;;8.38;63.05;95179.53;5064443;28;20805;-72
2021/04/17 04:19:41;;;;;;;9.20;7.50;;;;;;;8.29;63.46;95194.00;5083225;28;20872;-73
2021/04/17 04:22:07;;;;;;;9.40;7.75;;;;;;;8.42;63.13;95193.72;5090750;28;20433;-72
2021/04/17 04:24:33;;;;;;;9.63;7.53;;;;;;;8.49;63.28;95194.38;5090399;28;20234;-73
2021/04/17 04:27:00;;;;;;;8.80;7.70;;;;;;;8.48;62.68;95176.31;5090929;28;20191;-72
2021/04/17 04:29:27;;;;;;;10.05;8.18;;;;;;;8.54;63.25;95168.34;5090383;28;20691;-73
2021/04/17 04:31:53;;;;;;;10.85;8.40;;;;;;;8.64;62.59;95176.34;5090214;28;20194;-73
2021/04/17 04:34:20;;;;;;;9.13;8.15;;;;;;;8.59;62.95;95178.88;5090382;28;20202;-74
2021/04/17 04:36:46;;;;;;;11.02;7.95;;;;;;;8.58;62.49;95160.81;5090428;28;20202;-73
2021/04/17 04:39:13;;;;;;;11.47;8.33;;;;;;;8.57;62.23;95162.66;5090347;28;20214;-73
2021/04/17 04:41:39;;;;;;;8.77;7.70;;;;;;;8.57;62.01;95160.03;5083503;28;20450;-73
2021/04/17 04:44:05;;;;;;;7.97;7.13;;;;;;;8.50;62.83;95154.19;5070452;28;20963;-75
2021/04/17 04:46:32;;;;;;;9.93;7.25;;;;;;;8.31;62.84;95155.41;5085097;28;20452;-73
2021/04/17 04:48:59;;;;;;;7.88;7.00;;;;;;;8.43;62.83;95153.50;5084937;28;20669;-73
2021/04/17 04:51:26;;;;;;;7.55;6.65;;;;;;;8.52;62.75;95152.09;5072451;28;20206;-75
2021/04/17 04:53:53;;;;;;;13.70;7.80;;;;;;;8.47;62.83;95143.38;5070206;28;20200;-72
2021/04/17 04:56:21;;;;;;;7.50;6.68;;;;;;;8.60;62.75;95149.13;5069996;28;20192;-73
2021/04/17 04:58:51;;;;;;;7.68;6.95;;;;;;;8.54;62.24;95139.59;5083887;28;20199;-75
2021/04/17 05:01:17;;;;;;;7.43;6.70;;;;;;;8.49;63.05;95151.78;5089691;28;20212;-72
2021/04/17 05:03:44;;;;;;;7.47;6.60;;;;;;;8.45;63.21;95142.84;5089730;28;20244;-74
2021/04/17 05:06:10;;;;;;;8.07;7.28;;;;;;;8.15;63.85;95135.25;5090581;28;20441;-73
2021/04/17 05:08:37;;;;;;;9.10;8.20;;;;;;;8.44;63.35;95144.66;5089387;28;20201;-74
2021/04/17 05:11:03;;;;;;;9.45;8.20;;;;;;;8.63;62.96;95145.25;5088319;28;20293;-73
2021/04/17 05:13:30;;;;;;;9.07;7.82;;;;;;;8.50;63.25;95148.16;5089363;28;20213;-73
2021/04/17 05:15:56;;;;;;;8.90;7.37;;;;;;;8.69;62.35;95147.69;5090051;28;20176;-74
2021/04/17 05:18:23;;;;;;;9.77;7.80;;;;;;;8.67;62.54;95147.13;5089723;28;20472;-74
2021/04/17 05:20:49;;;;;;;9.88;8.52;;;;;;;8.73;62.59;95148.81;5090178;28;20201;-72
2021/04/17 05:23:16;;;;;;;11.07;8.43;;;;;;;8.75;62.51;95151.97;5089637;28;20191;-74
2021/04/17 05:25:43;;;;;;;11.85;9.63;;;;;;;8.77;61.93;95128.22;5090022;28;20847;-74
2021/04/17 05:28:11;;;;;;;14.32;9.35;;;;;;;8.76;62.81;95132.66;5092704;28;20194;-73
2021/04/17 05:30:38;;;;;;;16.17;9.20;;;;;;;8.79;62.46;95141.84;5093848;28;20326;-73
2021/04/17 05:33:05;;;;;;;12.10;8.73;;;;;;;8.82;62.21;95151.81;5093596;28;20198;-73
2021/04/17 05:35:32;;;;;;;17.92;10.32;;;;;;;8.85;62.50;95141.66;5093694;28;20436;-73
2021/04/17 05:37:59;;;;;;;12.38;9.43;;;;;;;8.82;62.11;95150.00;5093021;28;20237;-72
2021/04/17 05:40:26;;;;;;;13.30;10.25;;;;;;;8.72;62.54;95143.81;5093450;28;20223;-72
2021/04/17 05:42:53;;;;;;;13.27;9.80;;;;;;;8.72;62.65;95144.59;5093415;28;20646;-72
2021/04/17 05:45:20;;;;;;;13.68;9.57;;;;;;;8.59;62.50;95142.31;5093560;28;20183;-73
2021/04/17 05:47:46;;;;;;;14.55;10.73;;;;;;;8.61;63.20;95148.06;5093164;28;20203;-73
2021/04/17 05:50:13;;;;;;;15.85;10.57;;;;;;;8.58;63.13;95145.94;5093761;28;20231;-74
2021/04/17 05:52:40;;;;;;;17.80;11.47;;;;;;;8.64;62.93;95149.44;5093212;28;20210;-73
2021/04/17 05:55:07;;;;;;;16.83;13.20;;;;;;;8.92;62.67;95147.53;5094347;28;20462;-73
2021/04/17 05:57:33;;;;;;;15.05;10.90;;;;;;;8.94;62.21;95144.69;5094718;28;20480;-72
2021/04/17 06:00:00;;;;;;;11.85;10.55;;;;;;;8.75;62.49;95123.25;5093640;28;20656;-73
2021/04/17 06:02:26;;;;;;;10.98;9.55;;;;;;;8.94;62.55;95150.69;5093065;28;20190;-73
2021/04/17 06:04:53;;;;;;;12.15;9.65;;;;;;;9.01;61.59;95140.88;5093233;28;20268;-73
2021/04/17 06:07:19;;;;;;;11.52;9.90;;;;;;;9.05;61.21;95147.19;5092953;28;20278;-74
2021/04/17 06:09:45;;;;;;;11.70;10.30;;;;;;;8.79;62.76;95149.69;5092972;28;20239;-74
2021/04/17 06:12:12;;;;;;;12.20;9.88;;;;;;;8.86;62.50;95145.09;5092972;28;20585;-75
2021/04/17 06:14:39;;;;;;;15.23;10.53;;;;;;;8.80;63.15;95148.63;5093306;28;20191;-74
2021/04/17 06:17:05;;;;;;;18.53;11.73;;;;;;;8.95;62.25;95147.06;5092548;28;20432;-74
2021/04/17 06:19:32;;;;;;;13.87;11.27;;;;;;;8.94;62.61;95149.91;5092946;28;20973;-74
2021/04/17 06:21:59;;;;;;;14.98;11.95;;;;;;;8.82;62.78;95152.59;5092659;28;20817;-73
2021/04/17 06:24:26;;;;;;;16.35;11.90;;;;;;;8.72;63.09;95128.91;5093122;28;20191;-72
2021/04/17 06:26:52;;;;;;;14.95;11.98;;;;;;;8.86;62.57;95132.81;5092931;28;20195;-74
2021/04/17 06:29:18;;;;;;;17.97;13.60;;;;;;;8.89;63.04;95145.41;5092624;28;20589;-73
2021/04/17 06:31:45;;;;;;;16.10;12.95;;;;;;;8.72;63.17;95131.53;5092533;28;20441;-73
2021/04/17 06:34:11;;;;;;;18.63;13.68;;;;;;;8.68;63.78;95134.88;5092781;28;20248;-68
2021/04/17 06:36:38;;;;;;;17.08;13.75;;;;;;;8.73;63.41;95132.34;5072311;28;20204;-73
2021/04/17 06:39:08;;;;;;;20.55;14.27;;;;;;;8.76;63.22;95124.00;5058103;28;20669;-73
2021/04/17 06:41:36;;;;;;;16.03;12.90;;;;;;;8.50;64.47;95127.28;5062991;28;20199;-69
2021/04/17 06:44:07;;;;;;;19.70;12.73;;;;;;;8.61;63.64;95135.00;5060607;28;20535;-69
2021/04/17 06:46:37;;;;;;;17.45;13.68;;;;;;;8.41;63.89;95124.22;5061317;28;20535;-67
2021/04/17 06:49:06;;;;;;;35.40;20.83;;;;;;;8.77;65.88;95130.84;5061112;28;21123;-68
2021/04/17 06:51:36;;;;;;;19.33;14.90;;;;;;;8.88;64.87;95125.53;5060960;28;20478;-70
2021/04/17 06:54:05;;;;;;;17.13;14.03;;;;;;;8.50;64.30;95127.28;5060796;28;20553;-69
2021/04/17 06:56:31;;;;;;;17.00;15.00;;;;;;;8.73;63.69;95117.47;5059019;28;20501;-70
2021/04/17 06:58:58;;;;;;;19.67;14.98;;;;;;;8.95;62.70;95117.53;5061572;28;20430;-66
2021/04/17 07:01:26;;;;;;;21.03;16.30;;;;;;;8.94;62.49;95108.88;5052495;28;20212;-68
2021/04/17 07:03:52;;;;;;;64.15;44.35;;;;;;;9.14;61.88;95101.31;5051961;28;20442;-67
2021/04/17 07:06:19;;;;;;;21.92;17.50;;;;;;;8.80;62.29;95107.63;5052105;28;20223;-71
2021/04/17 07:08:45;;;;;;;24.43;16.20;;;;;;;8.79;63.28;95110.50;5054831;28;20177;-70
2021/04/17 07:11:12;;;;;;;22.35;16.63;;;;;;;8.90;63.77;95113.03;5053702;28;20474;-69
2021/04/17 07:14:06;;;;;;;21.77;17.02;;;;;;;8.99;62.29;95116.81;5055024;28;20192;-69
2021/04/17 07:16:32;;;;;;;21.07;14.67;;;;;;;8.79;62.87;95106.06;5072070;28;20191;-70
2021/04/17 07:18:59;;;;;;;20.33;16.00;;;;;;;8.66;62.06;95119.44;5073355;28;20457;-68
2021/04/17 07:21:28;;;;;;;20.73;15.38;;;;;;;8.58;62.60;95119.81;5072867;28;20478;-68
2021/04/17 07:23:55;;;;;;;21.25;16.60;;;;;;;8.73;63.15;95117.47;5072417;28;20219;-66
2021/04/17 07:26:22;;;;;;;88.50;65.93;;;;;;;8.36;63.77;95121.53;5071476;28;20211;-66
2021/04/17 07:28:54;;;;;;;34.72;26.83;;;;;;;8.71;63.70;95106.44;5071310;28;20245;-67
2021/04/17 07:31:25;;;;;;;18.73;15.93;;;;;;;8.71;63.22;95103.03;5071322;28;20219;-69
2021/04/17 07:33:53;;;;;;;21.60;16.77;;;;;;;8.89;62.67;95111.44;5071385;28;20879;-69
2021/04/17 07:36:21;;;;;;;22.25;16.92;;;;;;;8.81;63.27;95111.81;5071597;28;20286;-69
2021/04/17 07:38:47;;;;;;;20.70;16.38;;;;;;;8.92;62.25;95116.16;5071742;28;20229;-67
2021/04/17 07:41:20;;;;;;;19.90;16.33;;;;;;;8.83;62.93;95107.16;5071884;28;20995;-68
2021/04/17 07:43:58;;;;;;;55.73;41.27;;;;;;;8.81;62.88;95114.44;5073328;28;20948;-70
2021/04/17 07:46:27;;;;;;;21.17;17.00;;;;;;;8.85;62.48;95120.00;5072425;28;20449;-71
2021/04/17 07:49:12;;;;;;;18.42;14.80;;;;;;;8.72;63.19;95110.63;5071161;28;20253;-70
2021/04/17 07:52:00;;;;;;;20.33;15.90;;;;;;;8.91;62.50;95113.78;5070954;28;20224;-70
2021/04/17 07:54:28;;;;;;;17.80;14.60;;;;;;;8.66;62.88;95111.59;5071082;28;20206;-71
2021/04/17 07:56:55;;;;;;;20.83;15.63;;;;;;;8.71;64.05;95114.28;5070843;28;20541;-69
2021/04/17 07:59:24;;;;;;;21.30;15.10;;;;;;;8.97;62.60;95116.25;5070567;28;20438;-68
2021/04/17 08:01:52;;;;;;;20.43;16.47;;;;;;;8.95;63.47;95115.72;5071241;28;20438;-71
2021/04/17 08:04:23;;;;;;;17.03;13.93;;;;;;;8.99;63.02;95111.59;5071132;28;20488;-67
2021/04/17 08:06:51;;;;;;;18.97;14.83;;;;;;;9.12;62.84;95110.47;5070773;28;20438;-68
2021/04/17 08:09:20;;;;;;;24.40;19.63;;;;;;;8.90;63.08;95107.81;5070691;28;20465;-68
2021/04/17 08:11:49;;;;;;;22.40;17.70;;;;;;;9.14;63.51;95106.56;5070823;28;20442;-68
2021/04/17 08:14:18;;;;;;;18.33;15.30;;;;;;;9.31;63.13;95106.50;5070209;28;20194;-71
2021/04/17 08:16:44;;;;;;;18.27;15.17;;;;;;;9.43;62.74;95101.19;5070738;28;21080;-67
2021/04/17 08:19:12;;;;;;;18.87;15.77;;;;;;;9.44;62.50;95097.53;5070690;28;20435;-68
2021/04/17 08:21:38;;;;;;;19.43;15.47;;;;;;;9.47;61.79;95086.59;5070608;28;20469;-70
2021/04/17 08:24:06;;;;;;;19.67;15.77;;;;;;;9.29;62.42;95085.03;5070491;28;20441;-70
2021/04/17 08:26:33;;;;;;;21.07;15.43;;;;;;;9.39;62.27;95092.22;5070296;28;20442;-69
2021/04/17 08:29:01;;;;;;;19.10;14.37;;;;;;;9.30;63.08;95086.63;5070105;28;20789;-70
2021/04/17 08:31:31;;;;;;;17.77;13.47;;;;;;;9.05;62.95;95089.69;5070159;28;20572;-69
2021/04/17 08:34:19;;;;;;;16.27;13.80;;;;;;;9.27;63.08;95068.03;5070625;28;20888;-69
2021/04/17 08:37:02;;;;;;;16.20;14.03;;;;;;;9.40;63.07;95084.13;5060811;28;21023;-71
2021/04/17 08:39:34;;;;;;;16.87;14.03;;;;;;;9.43;63.68;95085.50;5068474;28;20846;-69
2021/04/17 08:42:05;;;;;;;14.27;12.57;;;;;;;9.39;63.56;95081.78;5069788;28;20441;-69
2021/04/17 08:44:36;;;;;;;13.43;11.70;;;;;;;9.38;63.83;95075.75;5070200;28;20821;-69
2021/04/17 08:47:05;;;;;;;13.60;12.20;;;;;;;9.53;64.06;95069.91;5068825;28;20450;-69
2021/04/17 08:49:37;;;;;;;13.53;11.60;;;;;;;9.52;63.49;95063.91;5070752;28;20532;-69
2021/04/17 08:52:10;;;;;;;15.73;11.70;;;;;;;9.37;63.98;95065.53;5070290;28;20438;-70
2021/04/17 08:54:38;;;;;;;13.80;11.87;;;;;;;9.32;64.28;95065.47;5070644;28;20483;-69
2021/04/17 08:57:18;;;;;;;12.20;10.83;;;;;;;9.33;63.77;95067.84;5070088;28;20442;-70
2021/04/17 08:59:57;;;;;;;13.67;10.67;;;;;;;9.28;64.75;95061.75;5070164;28;20983;-68
2021/04/17 09:02:26;;;;;;;14.90;11.17;;;;;;;9.20;63.98;95050.69;5071935;28;20477;-67
2021/04/17 09:05:08;;;;;;;14.37;10.80;;;;;;;9.10;64.61;95042.72;5074215;28;20442;-68
2021/04/17 09:07:42;;;;;;;12.17;9.57;;;;;;;8.99;64.98;95033.19;5071565;28;20445;-69
2021/04/17 09:10:34;;;;;;;11.93;10.27;;;;;;;9.12;64.57;95043.25;5073730;28;20489;-67
2021/04/17 09:13:09;;;;;;;13.23;10.13;;;;;;;9.18;64.03;95042.28;5066273;28;20304;-68
2021/04/17 09:16:03;;;;;;;11.83;10.00;;;;;;;9.29;63.45;95037.97;5073540;28;20951;-69
2021/04/17 09:18:36;;;;;;;11.80;9.60;;;;;;;9.18;63.16;95042.28;5075287;28;20442;-67
2021/04/17 09:21:15;;;;;;;12.03;9.57;;;;;;;9.09;63.15;95038.53;5073934;28;20441;-68
2021/04/17 09:23:47;;;;;;;14.73;10.65;;;;;;;8.96;63.97;95038.88;5073820;28;20443;-68
2021/04/17 09:26:32;;;;;;;14.93;11.00;;;;;;;9.02;63.92;95039.72;5074082;28;20195;-67
2021/04/17 09:29:05;;;;;;;10.70;9.30;;;;;;;8.87;63.88;95040.31;5073829;28;20445;-68
2021/04/17 09:31:36;;;;;;;11.02;9.32;;;;;;;9.20;63.93;95029.78;5073336;28;20262;-67
2021/04/17 09:34:05;;;;;;;11.38;9.70;;;;;;;9.33;63.08;95022.59;5064344;28;20188;-68
2021/04/17 09:36:32;;;;;;;10.70;9.33;;;;;;;9.45;63.21;95018.03;5064309;28;20193;-69
2021/04/17 09:38:59;;;;;;;41.57;29.63;;;;;;;9.41;62.69;95009.91;5063747;28;20538;-67
2021/04/17 09:41:46;;;;;;;31.87;24.20;;;;;;;9.41;62.50;95014.31;5067327;28;20543;-68
2021/04/17 09:44:13;;;;;;;9.38;7.90;;;;;;;9.16;62.55;95013.00;5063490;28;20438;-67
2021/04/17 09:46:39;;;;;;;10.47;9.10;;;;;;;9.00;63.61;95013.84;5060804;28;20199;-68
2021/04/17 09:49:05;;;;;;;9.02;7.85;;;;;;;9.13;63.67;95010.88;5063454;28;20426;-67
2021/04/17 09:51:32;;;;;;;10.00;7.78;;;;;;;9.15;63.62;95006.19;5062869;28;20727;-67
2021/04/17 09:54:04;;;;;;;10.55;8.45;;;;;;;9.13;64.57;95003.03;5061573;28;20207;-68
2021/04/17 09:56:32;;;;;;;9.47;8.33;;;;;;;9.30;64.52;94996.94;5060741;28;20222;-69
2021/04/17 09:59:06;;;;;;;10.63;8.17;;;;;;;9.36;63.47;94993.34;5063340;28;20446;-67
2021/04/17 10:01:33;;;;;;;9.57;7.88;;;;;;;8.95;64.02;94989.47;5062635;28;20960;-68
2021/04/17 10:04:00;;;;;;;9.30;7.83;;;;;;;9.13;64.50;95003.03;5063612;28;20183;-66
2021/04/17 10:06:29;;;;;;;8.23;6.60;;;;;;;9.21;64.48;95010.44;5062997;28;20423;-68
2021/04/17 10:09:06;;;;;;;7.05;6.32;;;;;;;9.39;63.98;95009.34;5063193;28;20438;-69
2021/04/17 10:11:35;;;;;;;7.45;5.80;;;;;;;9.43;63.63;95002.59;5065904;28;20306;-68
2021/04/17 10:14:02;;;;;;;9.00;6.97;;;;;;;9.38;63.51;95007.75;5061292;28;20224;-68
2021/04/17 10:16:31;;;;;;;6.37;5.70;;;;;;;9.25;63.44;94999.50;5067079;28;20468;-67
2021/04/17 10:19:00;;;;;;;6.47;5.40;;;;;;;9.11;63.05;94994.63;5065792;28;20466;-69
2021/04/17 10:21:33;;;;;;;6.00;5.40;;;;;;;9.17;63.33;94996.28;5070353;28;20441;-68
2021/04/17 10:24:15;;;;;;;6.70;5.13;;;;;;;9.48;62.45;94999.22;5074600;28;20288;-67
2021/04/17 10:27:09;;;;;;;5.90;5.27;;;;;;;9.27;62.24;95000.06;5065399;28;20456;-69
2021/04/17 10:29:52;;;;;;;9.17;7.07;;;;;;;9.33;62.23;95001.66;5066587;28;20477;-67
2021/04/17 10:32:28;;;;;;;10.30;6.13;;;;;;;9.38;62.44;94993.91;5052456;28;20438;-68
2021/04/17 10:35:05;;;;;;;8.30;5.70;;;;;;;9.39;62.87;94998.09;5052623;28;20488;-69
2021/04/17 10:37:47;;;;;;;7.65;5.97;;;;;;;9.39;62.29;95003.31;5052357;28;20960;-69
2021/04/17 10:40:19;;;;;;;6.10;5.10;;;;;;;9.38;62.56;95004.38;5052286;28;20200;-68
2021/04/17 10:43:03;;;;;;;6.00;5.07;;;;;;;9.20;62.35;94998.41;5051839;28;20196;-71
2021/04/17 10:45:29;;;;;;;40.50;24.90;;;;;;;9.11;63.58;94992.03;5052213;28;20530;-67
2021/04/17 10:47:59;;;;;;;66.15;48.40;;;;;;;9.28;63.32;94983.31;5052180;28;20196;-68
2021/04/17 10:50:27;;;;;;;14.40;8.73;;;;;;;9.23;62.51;94977.00;5051905;28;20255;-68
2021/04/17 10:53:03;;;;;;;5.75;4.93;;;;;;;9.52;61.80;94979.41;5052359;28;20535;-69
2021/04/17 10:55:41;;;;;;;5.50;4.97;;;;;;;9.52;61.96;94979.41;5051550;28;20206;-69
2021/04/17 10:58:27;;;;;;;6.60;4.80;;;;;;;9.56;61.20;94980.50;5052170;28;20522;-70
2021/04/17 11:00:58;;;;;;;6.13;5.20;;;;;;;9.67;60.99;94976.94;5052158;28;20519;-69
2021/04/17 11:03:28;;;;;;;6.83;5.30;;;;;;;9.63;61.77;94987.13;5051843;28;20434;-70
2021/04/17 11:06:16;;;;;;;7.73;5.67;;;;;;;9.51;62.33;94972.56;5051878;28;20426;-69
2021/04/17 11:08:43;;;;;;;9.87;8.17;;;;;;;9.63;61.85;94975.84;5065370;28;20560;-69
2021/04/17 11:11:12;;;;;;;9.97;7.83;;;;;;;9.51;61.50;94956.88;5067101;28;20975;-69
2021/04/17 11:13:42;;;;;;;6.20;5.60;;;;;;;9.47;62.06;94967.03;5060537;28;20443;-70
2021/04/17 11:16:11;;;;;;;6.40;5.27;;;;;;;9.36;62.09;94959.38;5069052;28;20489;-69
2021/04/17 11:18:41;;;;;;;7.70;5.70;;;;;;;9.25;62.11;94963.69;5069662;28;20452;-68
2021/04/17 11:21:11;;;;;;;6.80;5.30;;;;;;;9.25;62.05;94958.47;5069629;28;20455;-70
2021/04/17 11:23:48;;;;;;;8.07;6.87;;;;;;;9.36;61.87;94964.59;5069284;28;20986;-69
2021/04/17 11:26:23;;;;;;;8.10;6.67;;;;;;;9.20;62.45;94955.78;5066696;28;20454;-69
2021/04/17 11:28:52;;;;;;;10.83;7.23;;;;;;;8.98;63.48;94961.03;5074266;28;20460;-70
2021/04/17 11:31:22;;;;;;;6.97;5.83;;;;;;;9.13;63.30;94950.75;5075785;28;21019;-69
2021/04/17 11:33:51;;;;;;;6.40;5.70;;;;;;;9.20;62.55;94953.97;5073529;28;20812;-69
2021/04/17 11:36:19;;;;;;;9.87;7.23;;;;;;;9.34;62.17;94953.59;5071788;28;20453;-69
2021/04/17 11:38:46;;;;;;;11.93;8.87;;;;;;;9.34;62.75;94956.19;5061566;28;20446;-70
2021/04/17 11:41:12;;;;;;;9.83;7.93;;;;;;;9.10;62.78;94951.22;5059876;28;20430;-69
2021/04/17 11:43:39;;;;;;;8.73;7.03;;;;;;;9.15;63.22;94953.13;5054432;28;20446;-69
2021/04/17 11:46:06;;;;;;;8.83;7.20;;;;;;;9.33;62.58;94947.56;5051094;28;20819;-68